PADL/DLG METAR and TAF weather

Enter ICAO airport designator
Station Type Date Time Source
PADL METAR 2019/06/26 19:56 UTC NOAA

PADL 261956Z 19006KT 10SM FEW020 BKN120 16/12 A3014 RMK AO2 SLP212 T01560122


Station Type Date Time Source
PADL Decoded METAR 2019/06/26 19:56 UTC NOAA

Dillingham, Dillingham Airport, AK, United States (PADL) 59-03N 158-31W 29M
Jun 26, 2019 - 03:56 PM EDT / 2019.06.26 1956 UTC
Wind: from the S (190 degrees) at 7 MPH (6 KT):0
Visibility: 10 mile(s):0
Sky conditions: mostly cloudy
Temperature: 60.1 F (15.6 C)
Dew Point: 54.0 F (12.2 C)
Relative Humidity: 80%
Pressure (altimeter): 30.14 in. Hg (1020 hPa)
ob: PADL 261956Z 19006KT 10SM FEW020 BKN120 16/12 A3014 RMK AO2 SLP212 T01560122
cycle: 20

Station Type Date Time Source
PADL TAF 2019/06/26 18:34 UTC NOAA

TAF PADL 261732Z 2618/2718 VRB04KT P6SM SCT006 OVC100
FM262000 14010G16KT P6SM SCT010 OVC070
FM270500 VRB05KT P6SM SCT250

Example: see airport list